sensor_id;sensor_type;location;lat;lon;timestamp;temperature;humidity
44063;DHT22;29727;47.606;19.130;2023-02-17T00:01:30;3.70;71.60
44063;DHT22;29727;47.606;19.130;2023-02-17T00:03:56;3.70;71.90
44063;DHT22;29727;47.606;19.130;2023-02-17T00:06:25;3.30;71.60
44063;DHT22;29727;47.606;19.130;2023-02-17T00:08:51;3.70;71.80
44063;DHT22;29727;47.606;19.130;2023-02-17T00:11:17;3.70;71.90
44063;DHT22;29727;47.606;19.130;2023-02-17T00:13:43;3.70;71.90
44063;DHT22;29727;47.606;19.130;2023-02-17T00:16:31;3.70;71.70
44063;DHT22;29727;47.606;19.130;2023-02-17T00:19:00;3.70;71.50
44063;DHT22;29727;47.606;19.130;2023-02-17T00:21:28;3.70;71.50
44063;DHT22;29727;47.606;19.130;2023-02-17T00:23:56;3.70;71.50
44063;DHT22;29727;47.606;19.130;2023-02-17T00:26:22;3.70;71.70
44063;DHT22;29727;47.606;19.130;2023-02-17T00:28:49;3.60;71.90
44063;DHT22;29727;47.606;19.130;2023-02-17T00:31:20;3.60;71.50
44063;DHT22;29727;47.606;19.130;2023-02-17T00:33:47;3.60;71.50
44063;DHT22;29727;47.606;19.130;2023-02-17T00:36:15;3.60;71.60
44063;DHT22;29727;47.606;19.130;2023-02-17T00:38:44;3.60;71.60
44063;DHT22;29727;47.606;19.130;2023-02-17T00:41:10;3.50;71.70
44063;DHT22;29727;47.606;19.130;2023-02-17T00:43:36;3.60;71.90
44063;DHT22;29727;47.606;19.130;2023-02-17T00:46:02;3.50;71.50
44063;DHT22;29727;47.606;19.130;2023-02-17T00:48:29;3.50;72.00
44063;DHT22;29727;47.606;19.130;2023-02-17T00:50:55;3.50;72.10
44063;DHT22;29727;47.606;19.130;2023-02-17T00:53:21;3.50;72.10
44063;DHT22;29727;47.606;19.130;2023-02-17T00:55:47;3.60;72.10
44063;DHT22;29727;47.606;19.130;2023-02-17T00:58:13;3.50;72.10
44063;DHT22;29727;47.606;19.130;2023-02-17T01:00:38;3.60;71.70
44063;DHT22;29727;47.606;19.130;2023-02-17T01:03:04;3.50;72.20
44063;DHT22;29727;47.606;19.130;2023-02-17T01:05:30;3.50;72.10
44063;DHT22;29727;47.606;19.130;2023-02-17T01:07:56;3.50;72.40
44063;DHT22;29727;47.606;19.130;2023-02-17T01:10:21;3.50;72.30
44063;DHT22;29727;47.606;19.130;2023-02-17T01:12:47;3.50;72.60
44063;DHT22;29727;47.606;19.130;2023-02-17T01:15:13;3.50;72.80
44063;DHT22;29727;47.606;19.130;2023-02-17T01:17:38;3.50;72.80
44063;DHT22;29727;47.606;19.130;2023-02-17T01:20:05;3.50;72.90
44063;DHT22;29727;47.606;19.130;2023-02-17T01:22:30;3.50;72.90
44063;DHT22;29727;47.606;19.130;2023-02-17T01:24:56;3.50;72.70
44063;DHT22;29727;47.606;19.130;2023-02-17T01:27:22;3.50;73.00
44063;DHT22;29727;47.606;19.130;2023-02-17T01:29:47;3.50;72.90
44063;DHT22;29727;47.606;19.130;2023-02-17T01:32:13;3.50;73.10
44063;DHT22;29727;47.606;19.130;2023-02-17T01:34:39;3.50;73.00
44063;DHT22;29727;47.606;19.130;2023-02-17T01:37:04;3.50;72.90
44063;DHT22;29727;47.606;19.130;2023-02-17T01:39:30;3.50;73.10
44063;DHT22;29727;47.606;19.130;2023-02-17T01:41:56;3.50;73.10
44063;DHT22;29727;47.606;19.130;2023-02-17T01:44:24;3.50;73.20
44063;DHT22;29727;47.606;19.130;2023-02-17T01:46:52;3.50;73.20
44063;DHT22;29727;47.606;19.130;2023-02-17T01:49:27;3.50;73.20
44063;DHT22;29727;47.606;19.130;2023-02-17T01:54:57;3.50;73.70
44063;DHT22;29727;47.606;19.130;2023-02-17T01:57:26;3.60;72.50
44063;DHT22;29727;47.606;19.130;2023-02-17T01:59:53;3.50;73.00
44063;DHT22;29727;47.606;19.130;2023-02-17T02:02:20;3.50;73.00
44063;DHT22;29727;47.606;19.130;2023-02-17T02:04:48;3.50;73.00
44063;DHT22;29727;47.606;19.130;2023-02-17T02:07:22;3.50;73.10
44063;DHT22;29727;47.606;19.130;2023-02-17T02:09:53;3.50;73.10
44063;DHT22;29727;47.606;19.130;2023-02-17T02:12:28;3.50;73.10
44063;DHT22;29727;47.606;19.130;2023-02-17T02:15:00;3.50;73.10
44063;DHT22;29727;47.606;19.130;2023-02-17T02:17:59;3.50;73.00
44063;DHT22;29727;47.606;19.130;2023-02-17T02:20:37;3.50;73.10
44063;DHT22;29727;47.606;19.130;2023-02-17T02:26:13;3.50;73.20
44063;DHT22;29727;47.606;19.130;2023-02-17T02:34:20;3.50;73.10
44063;DHT22;29727;47.606;19.130;2023-02-17T02:36:57;3.50;72.90
44063;DHT22;29727;47.606;19.130;2023-02-17T02:39:29;3.50;72.70
44063;DHT22;29727;47.606;19.130;2023-02-17T02:42:04;3.50;72.70
44063;DHT22;29727;47.606;19.130;2023-02-17T02:44:30;3.50;72.70
44063;DHT22;29727;47.606;19.130;2023-02-17T02:47:03;3.50;72.70
44063;DHT22;29727;47.606;19.130;2023-02-17T02:49:30;3.40;72.60
44063;DHT22;29727;47.606;19.130;2023-02-17T03:08:09;3.40;72.70
44063;DHT22;29727;47.606;19.130;2023-02-17T03:10:47;3.40;72.70
44063;DHT22;29727;47.606;19.130;2023-02-17T03:13:14;3.40;72.60
44063;DHT22;29727;47.606;19.130;2023-02-17T03:15:40;3.40;72.80
44063;DHT22;29727;47.606;19.130;2023-02-17T03:18:05;3.40;72.90
44063;DHT22;29727;47.606;19.130;2023-02-17T03:20:44;3.40;72.90
44063;DHT22;29727;47.606;19.130;2023-02-17T03:23:10;3.40;72.60
44063;DHT22;29727;47.606;19.130;2023-02-17T03:25:36;3.40;72.60
44063;DHT22;29727;47.606;19.130;2023-02-17T03:28:02;3.30;72.70
44063;DHT22;29727;47.606;19.130;2023-02-17T03:30:27;3.40;72.80
44063;DHT22;29727;47.606;19.130;2023-02-17T03:32:53;3.40;72.80
44063;DHT22;29727;47.606;19.130;2023-02-17T03:35:19;3.30;72.90
44063;DHT22;29727;47.606;19.130;2023-02-17T03:37:45;3.30;73.00
44063;DHT22;29727;47.606;19.130;2023-02-17T03:40:10;3.30;73.20
44063;DHT22;29727;47.606;19.130;2023-02-17T03:42:36;3.30;73.20
44063;DHT22;29727;47.606;19.130;2023-02-17T03:45:02;3.30;72.60
44063;DHT22;29727;47.606;19.130;2023-02-17T03:47:28;3.30;73.20
44063;DHT22;29727;47.606;19.130;2023-02-17T03:49:53;3.30;73.20
44063;DHT22;29727;47.606;19.130;2023-02-17T03:52:19;3.40;73.10
44063;DHT22;29727;47.606;19.130;2023-02-17T03:54:45;3.40;72.90
44063;DHT22;29727;47.606;19.130;2023-02-17T03:57:10;3.40;73.10
44063;DHT22;29727;47.606;19.130;2023-02-17T03:59:36;3.30;73.20
44063;DHT22;29727;47.606;19.130;2023-02-17T04:02:02;3.30;73.20
44063;DHT22;29727;47.606;19.130;2023-02-17T04:04:28;3.40;73.20
44063;DHT22;29727;47.606;19.130;2023-02-17T04:06:54;3.30;73.20
44063;DHT22;29727;47.606;19.130;2023-02-17T04:09:20;3.40;73.10
44063;DHT22;29727;47.606;19.130;2023-02-17T04:11:46;3.40;73.20
44063;DHT22;29727;47.606;19.130;2023-02-17T04:14:11;3.40;73.40
44063;DHT22;29727;47.606;19.130;2023-02-17T04:16:37;3.30;73.50
44063;DHT22;29727;47.606;19.130;2023-02-17T04:19:05;3.30;73.70
44063;DHT22;29727;47.606;19.130;2023-02-17T04:21:31;3.30;73.90
44063;DHT22;29727;47.606;19.130;2023-02-17T04:23:58;3.30;73.70
44063;DHT22;29727;47.606;19.130;2023-02-17T04:26:24;3.30;74.20
44063;DHT22;29727;47.606;19.130;2023-02-17T04:28:50;3.20;74.40
44063;DHT22;29727;47.606;19.130;2023-02-17T04:31:15;3.20;75.50
44063;DHT22;29727;47.606;19.130;2023-02-17T04:33:41;3.30;84.80
44063;DHT22;29727;47.606;19.130;2023-02-17T04:38:33;3.70;87.50
44063;DHT22;29727;47.606;19.130;2023-02-17T04:40:59;3.90;83.80
44063;DHT22;29727;47.606;19.130;2023-02-17T04:43:26;4.00;80.90
44063;DHT22;29727;47.606;19.130;2023-02-17T04:45:53;4.00;79.30
44063;DHT22;29727;47.606;19.130;2023-02-17T04:48:18;4.10;75.40
44063;DHT22;29727;47.606;19.130;2023-02-17T04:50:44;4.00;74.50
44063;DHT22;29727;47.606;19.130;2023-02-17T04:53:10;4.00;74.40
44063;DHT22;29727;47.606;19.130;2023-02-17T04:55:36;3.90;74.40
44063;DHT22;29727;47.606;19.130;2023-02-17T04:58:02;3.90;74.00
44063;DHT22;29727;47.606;19.130;2023-02-17T05:00:28;3.80;73.70
44063;DHT22;29727;47.606;19.130;2023-02-17T05:02:54;3.80;74.50
44063;DHT22;29727;47.606;19.130;2023-02-17T05:05:20;3.80;73.50
44063;DHT22;29727;47.606;19.130;2023-02-17T05:07:46;3.70;73.80
44063;DHT22;29727;47.606;19.130;2023-02-17T05:10:14;3.60;74.40
44063;DHT22;29727;47.606;19.130;2023-02-17T05:12:40;3.50;74.80
44063;DHT22;29727;47.606;19.130;2023-02-17T05:15:06;3.50;74.70
44063;DHT22;29727;47.606;19.130;2023-02-17T05:17:33;3.50;75.60
44063;DHT22;29727;47.606;19.130;2023-02-17T05:19:59;3.50;75.70
44063;DHT22;29727;47.606;19.130;2023-02-17T05:22:25;3.40;76.00
44063;DHT22;29727;47.606;19.130;2023-02-17T05:24:51;3.40;76.50
44063;DHT22;29727;47.606;19.130;2023-02-17T05:27:17;3.40;76.80
44063;DHT22;29727;47.606;19.130;2023-02-17T05:29:42;3.50;76.60
44063;DHT22;29727;47.606;19.130;2023-02-17T05:32:08;3.40;76.60
44063;DHT22;29727;47.606;19.130;2023-02-17T05:34:34;3.40;77.10
44063;DHT22;29727;47.606;19.130;2023-02-17T05:37:00;3.40;77.30
44063;DHT22;29727;47.606;19.130;2023-02-17T05:39:26;3.40;78.10
44063;DHT22;29727;47.606;19.130;2023-02-17T05:41:51;3.40;78.60
44063;DHT22;29727;47.606;19.130;2023-02-17T05:44:17;3.50;78.60
44063;DHT22;29727;47.606;19.130;2023-02-17T05:46:43;3.50;78.40
44063;DHT22;29727;47.606;19.130;2023-02-17T05:49:09;3.50;78.40
44063;DHT22;29727;47.606;19.130;2023-02-17T05:51:34;3.50;78.40
44063;DHT22;29727;47.606;19.130;2023-02-17T05:54:00;3.60;78.00
44063;DHT22;29727;47.606;19.130;2023-02-17T05:56:26;3.60;77.80
44063;DHT22;29727;47.606;19.130;2023-02-17T05:58:51;3.70;78.00
44063;DHT22;29727;47.606;19.130;2023-02-17T06:01:17;3.70;78.00
44063;DHT22;29727;47.606;19.130;2023-02-17T06:03:43;3.70;78.10
44063;DHT22;29727;47.606;19.130;2023-02-17T06:06:08;3.80;77.90
44063;DHT22;29727;47.606;19.130;2023-02-17T06:08:34;3.80;77.70
44063;DHT22;29727;47.606;19.130;2023-02-17T06:11:00;3.80;77.70
44063;DHT22;29727;47.606;19.130;2023-02-17T06:13:26;3.90;77.60
44063;DHT22;29727;47.606;19.130;2023-02-17T06:15:51;3.90;77.30
44063;DHT22;29727;47.606;19.130;2023-02-17T06:18:17;3.90;77.30
44063;DHT22;29727;47.606;19.130;2023-02-17T06:20:43;3.90;77.50
44063;DHT22;29727;47.606;19.130;2023-02-17T06:23:09;3.90;77.70
44063;DHT22;29727;47.606;19.130;2023-02-17T06:25:36;4.00;78.30
44063;DHT22;29727;47.606;19.130;2023-02-17T06:28:02;4.00;77.70
44063;DHT22;29727;47.606;19.130;2023-02-17T06:30:28;4.00;77.60
44063;DHT22;29727;47.606;19.130;2023-02-17T06:32:54;4.10;77.60
44063;DHT22;29727;47.606;19.130;2023-02-17T06:35:19;4.10;77.60
44063;DHT22;29727;47.606;19.130;2023-02-17T06:37:45;4.10;77.70
44063;DHT22;29727;47.606;19.130;2023-02-17T06:40:11;4.20;77.70
44063;DHT22;29727;47.606;19.130;2023-02-17T06:42:37;4.20;77.40
44063;DHT22;29727;47.606;19.130;2023-02-17T06:45:03;4.30;77.00
44063;DHT22;29727;47.606;19.130;2023-02-17T06:47:34;4.30;77.50
44063;DHT22;29727;47.606;19.130;2023-02-17T06:49:59;4.30;77.50
44063;DHT22;29727;47.606;19.130;2023-02-17T06:52:25;4.30;77.40
44063;DHT22;29727;47.606;19.130;2023-02-17T06:54:51;4.40;77.60
44063;DHT22;29727;47.606;19.130;2023-02-17T06:57:17;4.40;77.80
44063;DHT22;29727;47.606;19.130;2023-02-17T06:59:43;4.50;77.60
44063;DHT22;29727;47.606;19.130;2023-02-17T07:02:12;4.50;77.70
44063;DHT22;29727;47.606;19.130;2023-02-17T07:04:39;4.50;77.80
44063;DHT22;29727;47.606;19.130;2023-02-17T07:07:05;4.60;77.90
44063;DHT22;29727;47.606;19.130;2023-02-17T07:09:31;4.60;78.00
44063;DHT22;29727;47.606;19.130;2023-02-17T07:11:56;4.70;77.70
44063;DHT22;29727;47.606;19.130;2023-02-17T07:14:23;4.70;77.80
44063;DHT22;29727;47.606;19.130;2023-02-17T07:16:49;4.80;77.90
44063;DHT22;29727;47.606;19.130;2023-02-17T07:19:15;4.80;77.90
44063;DHT22;29727;47.606;19.130;2023-02-17T07:21:41;4.90;78.00
44063;DHT22;29727;47.606;19.130;2023-02-17T07:24:07;4.90;77.90
44063;DHT22;29727;47.606;19.130;2023-02-17T07:26:38;5.00;77.90
44063;DHT22;29727;47.606;19.130;2023-02-17T07:29:05;5.00;78.10
44063;DHT22;29727;47.606;19.130;2023-02-17T07:31:31;5.10;78.00
44063;DHT22;29727;47.606;19.130;2023-02-17T07:33:57;5.10;78.10
44063;DHT22;29727;47.606;19.130;2023-02-17T07:36:23;5.20;77.70
44063;DHT22;29727;47.606;19.130;2023-02-17T07:38:49;5.20;78.10
44063;DHT22;29727;47.606;19.130;2023-02-17T07:41:17;5.20;78.10
44063;DHT22;29727;47.606;19.130;2023-02-17T07:43:44;5.30;78.10
44063;DHT22;29727;47.606;19.130;2023-02-17T07:46:11;5.40;78.20
44063;DHT22;29727;47.606;19.130;2023-02-17T07:48:37;5.40;78.20
44063;DHT22;29727;47.606;19.130;2023-02-17T07:51:06;5.40;78.10
44063;DHT22;29727;47.606;19.130;2023-02-17T07:53:32;5.50;77.80
44063;DHT22;29727;47.606;19.130;2023-02-17T07:55:58;5.50;78.30
44063;DHT22;29727;47.606;19.130;2023-02-17T07:58:24;5.60;78.30
44063;DHT22;29727;47.606;19.130;2023-02-17T08:00:49;5.70;78.40
44063;DHT22;29727;47.606;19.130;2023-02-17T08:03:15;5.70;78.60
44063;DHT22;29727;47.606;19.130;2023-02-17T08:05:41;5.80;78.70
44063;DHT22;29727;47.606;19.130;2023-02-17T08:08:07;6.00;78.40
44063;DHT22;29727;47.606;19.130;2023-02-17T08:10:51;6.00;78.30
44063;DHT22;29727;47.606;19.130;2023-02-17T08:13:35;6.10;77.80
44063;DHT22;29727;47.606;19.130;2023-02-17T08:16:01;6.10;77.80
44063;DHT22;29727;47.606;19.130;2023-02-17T08:18:26;6.20;78.60
44063;DHT22;29727;47.606;19.130;2023-02-17T08:23:24;6.40;78.00
44063;DHT22;29727;47.606;19.130;2023-02-17T08:25:50;6.40;78.00
44063;DHT22;29727;47.606;19.130;2023-02-17T08:28:15;6.50;78.60
44063;DHT22;29727;47.606;19.130;2023-02-17T08:30:42;6.60;78.50
44063;DHT22;29727;47.606;19.130;2023-02-17T08:33:07;6.80;77.60
44063;DHT22;29727;47.606;19.130;2023-02-17T08:35:33;6.90;76.80
44063;DHT22;29727;47.606;19.130;2023-02-17T08:37:58;7.00;76.40
44063;DHT22;29727;47.606;19.130;2023-02-17T08:40:24;7.10;76.30
44063;DHT22;29727;47.606;19.130;2023-02-17T08:42:50;7.20;75.90
44063;DHT22;29727;47.606;19.130;2023-02-17T08:45:16;7.40;75.00
44063;DHT22;29727;47.606;19.130;2023-02-17T08:47:42;7.40;75.40
44063;DHT22;29727;47.606;19.130;2023-02-17T08:50:10;7.50;75.20
44063;DHT22;29727;47.606;19.130;2023-02-17T08:52:40;7.60;75.10
44063;DHT22;29727;47.606;19.130;2023-02-17T08:55:06;7.70;74.80
44063;DHT22;29727;47.606;19.130;2023-02-17T08:57:31;7.80;74.50
44063;DHT22;29727;47.606;19.130;2023-02-17T08:59:57;7.90;74.50
44063;DHT22;29727;47.606;19.130;2023-02-17T09:02:23;8.10;73.50
44063;DHT22;29727;47.606;19.130;2023-02-17T09:04:48;8.30;72.00
44063;DHT22;29727;47.606;19.130;2023-02-17T09:07:14;8.50;71.30
44063;DHT22;29727;47.606;19.130;2023-02-17T09:09:41;8.70;69.20
44063;DHT22;29727;47.606;19.130;2023-02-17T09:12:07;8.90;68.60
44063;DHT22;29727;47.606;19.130;2023-02-17T09:14:33;9.00;67.70
44063;DHT22;29727;47.606;19.130;2023-02-17T09:16:59;9.20;64.20
44063;DHT22;29727;47.606;19.130;2023-02-17T09:19:25;9.40;63.50
44063;DHT22;29727;47.606;19.130;2023-02-17T09:21:50;9.50;63.70
44063;DHT22;29727;47.606;19.130;2023-02-17T09:24:17;9.70;63.20
44063;DHT22;29727;47.606;19.130;2023-02-17T09:26:42;9.90;63.30
44063;DHT22;29727;47.606;19.130;2023-02-17T09:29:08;10.00;63.00
44063;DHT22;29727;47.606;19.130;2023-02-17T09:31:35;10.20;62.10
44063;DHT22;29727;47.606;19.130;2023-02-17T09:34:01;10.30;60.60
44063;DHT22;29727;47.606;19.130;2023-02-17T09:36:33;10.40;60.80
44063;DHT22;29727;47.606;19.130;2023-02-17T09:38:59;10.50;60.30
44063;DHT22;29727;47.606;19.130;2023-02-17T09:41:28;10.60;59.20
44063;DHT22;29727;47.606;19.130;2023-02-17T09:43:56;10.80;58.80
44063;DHT22;29727;47.606;19.130;2023-02-17T09:46:36;10.80;58.40
44063;DHT22;29727;47.606;19.130;2023-02-17T09:49:12;11.00;58.60
44063;DHT22;29727;47.606;19.130;2023-02-17T09:52:01;11.10;58.80
44063;DHT22;29727;47.606;19.130;2023-02-17T09:54:35;11.20;58.00
44063;DHT22;29727;47.606;19.130;2023-02-17T09:57:05;11.30;57.30
44063;DHT22;29727;47.606;19.130;2023-02-17T09:59:35;11.40;57.50
44063;DHT22;29727;47.606;19.130;2023-02-17T10:02:06;11.50;57.40
44063;DHT22;29727;47.606;19.130;2023-02-17T10:04:39;11.60;56.40
44063;DHT22;29727;47.606;19.130;2023-02-17T10:07:19;11.80;56.40
44063;DHT22;29727;47.606;19.130;2023-02-17T10:09:50;11.90;55.50
44063;DHT22;29727;47.606;19.130;2023-02-17T10:12:23;11.90;56.50
44063;DHT22;29727;47.606;19.130;2023-02-17T10:15:00;12.10;56.10
44063;DHT22;29727;47.606;19.130;2023-02-17T10:17:39;12.10;55.90
44063;DHT22;29727;47.606;19.130;2023-02-17T10:20:21;12.20;56.00
44063;DHT22;29727;47.606;19.130;2023-02-17T10:28:52;12.30;55.60
44063;DHT22;29727;47.606;19.130;2023-02-17T10:31:43;12.30;55.20
44063;DHT22;29727;47.606;19.130;2023-02-17T10:34:36;12.40;54.20
44063;DHT22;29727;47.606;19.130;2023-02-17T10:39:48;12.50;54.30
44063;DHT22;29727;47.606;19.130;2023-02-17T10:42:37;12.60;54.10
44063;DHT22;29727;47.606;19.130;2023-02-17T10:45:07;12.70;53.20
44063;DHT22;29727;47.606;19.130;2023-02-17T10:47:36;12.70;54.10
44063;DHT22;29727;47.606;19.130;2023-02-17T10:50:05;12.70;55.10
44063;DHT22;29727;47.606;19.130;2023-02-17T10:52:39;12.80;54.60
44063;DHT22;29727;47.606;19.130;2023-02-17T10:57:43;12.90;53.90
44063;DHT22;29727;47.606;19.130;2023-02-17T11:00:17;12.90;54.50
44063;DHT22;29727;47.606;19.130;2023-02-17T11:02:48;12.90;53.90
44063;DHT22;29727;47.606;19.130;2023-02-17T11:05:27;12.90;53.90
44063;DHT22;29727;47.606;19.130;2023-02-17T11:08:00;13.00;53.50
44063;DHT22;29727;47.606;19.130;2023-02-17T11:10:31;13.10;52.40
44063;DHT22;29727;47.606;19.130;2023-02-17T11:12:59;13.10;52.90
44063;DHT22;29727;47.606;19.130;2023-02-17T11:15:34;13.10;53.00
44063;DHT22;29727;47.606;19.130;2023-02-17T11:18:08;13.20;53.20
44063;DHT22;29727;47.606;19.130;2023-02-17T11:20:35;13.20;52.80
44063;DHT22;29727;47.606;19.130;2023-02-17T11:25:55;13.30;52.20
44063;DHT22;29727;47.606;19.130;2023-02-17T11:28:22;13.30;52.50
44063;DHT22;29727;47.606;19.130;2023-02-17T11:30:54;13.40;52.40
44063;DHT22;29727;47.606;19.130;2023-02-17T11:33:38;13.40;52.50
44063;DHT22;29727;47.606;19.130;2023-02-17T11:36:06;13.40;52.40
44063;DHT22;29727;47.606;19.130;2023-02-17T11:41:04;13.40;52.60
44063;DHT22;29727;47.606;19.130;2023-02-17T11:43:32;13.40;52.90
44063;DHT22;29727;47.606;19.130;2023-02-17T11:51:21;13.60;52.90
44063;DHT22;29727;47.606;19.130;2023-02-17T11:54:16;13.60;53.20
44063;DHT22;29727;47.606;19.130;2023-02-17T12:05:34;13.70;52.70
44063;DHT22;29727;47.606;19.130;2023-02-17T12:11:21;13.80;52.70
44063;DHT22;29727;47.606;19.130;2023-02-17T12:17:00;13.80;52.20
44063;DHT22;29727;47.606;19.130;2023-02-17T12:22:29;13.90;51.80
44063;DHT22;29727;47.606;19.130;2023-02-17T12:30:21;13.80;51.00
44063;DHT22;29727;47.606;19.130;2023-02-17T12:38:23;13.90;50.60
44063;DHT22;29727;47.606;19.130;2023-02-17T12:40:53;13.90;50.70
44063;DHT22;29727;47.606;19.130;2023-02-17T12:43:48;13.90;50.70
44063;DHT22;29727;47.606;19.130;2023-02-17T12:46:16;14.00;49.90
44063;DHT22;29727;47.606;19.130;2023-02-17T12:48:49;14.00;50.20
44063;DHT22;29727;47.606;19.130;2023-02-17T12:51:22;14.10;49.90
44063;DHT22;29727;47.606;19.130;2023-02-17T12:53:56;14.10;50.00
44063;DHT22;29727;47.606;19.130;2023-02-17T12:56:38;14.20;50.10
44063;DHT22;29727;47.606;19.130;2023-02-17T12:59:17;14.30;50.00
44063;DHT22;29727;47.606;19.130;2023-02-17T13:01:50;14.30;49.40
44063;DHT22;29727;47.606;19.130;2023-02-17T13:04:18;14.40;49.70
44063;DHT22;29727;47.606;19.130;2023-02-17T13:06:50;14.40;53.80
44063;DHT22;29727;47.606;19.130;2023-02-17T13:09:26;14.40;52.50
44063;DHT22;29727;47.606;19.130;2023-02-17T13:11:53;14.40;52.10
44063;DHT22;29727;47.606;19.130;2023-02-17T13:14:39;14.40;52.80
44063;DHT22;29727;47.606;19.130;2023-02-17T13:17:04;14.40;53.20
44063;DHT22;29727;47.606;19.130;2023-02-17T13:19:35;14.50;51.50
44063;DHT22;29727;47.606;19.130;2023-02-17T13:22:01;14.50;51.60
44063;DHT22;29727;47.606;19.130;2023-02-17T13:24:34;14.50;51.60
44063;DHT22;29727;47.606;19.130;2023-02-17T13:27:20;14.50;51.80
44063;DHT22;29727;47.606;19.130;2023-02-17T13:29:58;14.50;51.90
44063;DHT22;29727;47.606;19.130;2023-02-17T13:32:30;14.40;51.90
44063;DHT22;29727;47.606;19.130;2023-02-17T13:35:02;14.40;52.30
44063;DHT22;29727;47.606;19.130;2023-02-17T13:39:58;14.30;52.50
44063;DHT22;29727;47.606;19.130;2023-02-17T13:44:58;14.20;52.20
44063;DHT22;29727;47.606;19.130;2023-02-17T13:47:34;14.20;52.90
44063;DHT22;29727;47.606;19.130;2023-02-17T13:50:00;14.10;53.10
44063;DHT22;29727;47.606;19.130;2023-02-17T13:52:29;14.10;52.30
44063;DHT22;29727;47.606;19.130;2023-02-17T13:54:55;14.10;52.40
44063;DHT22;29727;47.606;19.130;2023-02-17T13:57:29;14.00;52.70
44063;DHT22;29727;47.606;19.130;2023-02-17T14:02:54;13.90;53.60
44063;DHT22;29727;47.606;19.130;2023-02-17T14:08:06;13.80;54.40
44063;DHT22;29727;47.606;19.130;2023-02-17T14:10:35;13.80;54.80
44063;DHT22;29727;47.606;19.130;2023-02-17T14:13:01;13.80;55.10
44063;DHT22;29727;47.606;19.130;2023-02-17T14:15:28;13.80;55.20
44063;DHT22;29727;47.606;19.130;2023-02-17T14:17:56;13.80;55.30
44063;DHT22;29727;47.606;19.130;2023-02-17T14:20:35;13.80;55.60
44063;DHT22;29727;47.606;19.130;2023-02-17T14:23:05;13.70;55.80
44063;DHT22;29727;47.606;19.130;2023-02-17T14:25:33;13.60;56.00
44063;DHT22;29727;47.606;19.130;2023-02-17T14:27:59;13.60;56.30
44063;DHT22;29727;47.606;19.130;2023-02-17T14:30:31;13.60;56.60
44063;DHT22;29727;47.606;19.130;2023-02-17T14:35:33;13.60;57.20
44063;DHT22;29727;47.606;19.130;2023-02-17T14:38:17;13.50;57.40
44063;DHT22;29727;47.606;19.130;2023-02-17T14:40:44;13.50;57.60
44063;DHT22;29727;47.606;19.130;2023-02-17T14:43:10;13.50;57.70
44063;DHT22;29727;47.606;19.130;2023-02-17T14:45:35;13.50;57.30
44063;DHT22;29727;47.606;19.130;2023-02-17T14:48:01;13.50;58.10
44063;DHT22;29727;47.606;19.130;2023-02-17T14:50:27;13.50;58.50
44063;DHT22;29727;47.606;19.130;2023-02-17T14:52:53;13.40;58.30
44063;DHT22;29727;47.606;19.130;2023-02-17T14:55:43;13.40;58.70
44063;DHT22;29727;47.606;19.130;2023-02-17T14:58:21;13.30;58.90
44063;DHT22;29727;47.606;19.130;2023-02-17T15:00:48;13.20;59.20
44063;DHT22;29727;47.606;19.130;2023-02-17T15:03:14;13.20;58.80
44063;DHT22;29727;47.606;19.130;2023-02-17T15:05:40;13.20;59.30
44063;DHT22;29727;47.606;19.130;2023-02-17T15:08:17;13.30;59.30
44063;DHT22;29727;47.606;19.130;2023-02-17T15:10:43;13.30;59.50
44063;DHT22;29727;47.606;19.130;2023-02-17T15:13:18;13.30;59.50
44063;DHT22;29727;47.606;19.130;2023-02-17T15:15:45;13.40;59.50
44063;DHT22;29727;47.606;19.130;2023-02-17T15:18:13;13.40;59.70
44063;DHT22;29727;47.606;19.130;2023-02-17T15:20:41;13.30;59.70
44063;DHT22;29727;47.606;19.130;2023-02-17T15:23:19;13.40;59.80
44063;DHT22;29727;47.606;19.130;2023-02-17T15:25:45;13.40;59.70
44063;DHT22;29727;47.606;19.130;2023-02-17T15:28:13;13.40;59.80
44063;DHT22;29727;47.606;19.130;2023-02-17T15:30:39;13.40;59.70
44063;DHT22;29727;47.606;19.130;2023-02-17T15:33:10;13.40;59.70
44063;DHT22;29727;47.606;19.130;2023-02-17T15:35:37;13.40;59.90
44063;DHT22;29727;47.606;19.130;2023-02-17T15:38:03;13.40;60.10
44063;DHT22;29727;47.606;19.130;2023-02-17T15:40:29;13.40;60.10
44063;DHT22;29727;47.606;19.130;2023-02-17T15:42:58;13.40;60.10
44063;DHT22;29727;47.606;19.130;2023-02-17T15:45:32;13.40;59.70
44063;DHT22;29727;47.606;19.130;2023-02-17T15:48:03;13.40;60.20
44063;DHT22;29727;47.606;19.130;2023-02-17T15:50:29;13.40;60.30
44063;DHT22;29727;47.606;19.130;2023-02-17T15:52:55;13.30;60.40
44063;DHT22;29727;47.606;19.130;2023-02-17T15:55:21;13.30;60.40
44063;DHT22;29727;47.606;19.130;2023-02-17T15:57:56;13.30;60.50
44063;DHT22;29727;47.606;19.130;2023-02-17T16:00:32;13.30;60.60
44063;DHT22;29727;47.606;19.130;2023-02-17T16:02:58;13.30;60.90
44063;DHT22;29727;47.606;19.130;2023-02-17T16:05:26;13.30;61.10
44063;DHT22;29727;47.606;19.130;2023-02-17T16:07:52;13.00;61.10
44063;DHT22;29727;47.606;19.130;2023-02-17T16:10:21;13.10;61.00
44063;DHT22;29727;47.606;19.130;2023-02-17T16:12:48;13.10;61.60
44063;DHT22;29727;47.606;19.130;2023-02-17T16:15:20;13.10;61.90
44063;DHT22;29727;47.606;19.130;2023-02-17T16:17:48;13.10;61.70
44063;DHT22;29727;47.606;19.130;2023-02-17T16:20:29;13.00;62.20
44063;DHT22;29727;47.606;19.130;2023-02-17T16:22:57;13.00;62.40
44063;DHT22;29727;47.606;19.130;2023-02-17T16:25:23;13.00;62.30
44063;DHT22;29727;47.606;19.130;2023-02-17T16:27:50;12.90;62.40
44063;DHT22;29727;47.606;19.130;2023-02-17T16:30:20;12.90;62.00
44063;DHT22;29727;47.606;19.130;2023-02-17T16:32:47;12.90;62.60
44063;DHT22;29727;47.606;19.130;2023-02-17T16:35:19;12.90;62.70
44063;DHT22;29727;47.606;19.130;2023-02-17T16:38:06;12.90;62.80
44063;DHT22;29727;47.606;19.130;2023-02-17T16:40:34;12.80;62.80
44063;DHT22;29727;47.606;19.130;2023-02-17T16:43:01;12.80;62.70
44063;DHT22;29727;47.606;19.130;2023-02-17T16:45:29;12.80;62.30
44063;DHT22;29727;47.606;19.130;2023-02-17T16:47:59;12.80;63.00
44063;DHT22;29727;47.606;19.130;2023-02-17T16:50:31;12.80;63.00
44063;DHT22;29727;47.606;19.130;2023-02-17T16:53:00;12.70;62.90
44063;DHT22;29727;47.606;19.130;2023-02-17T16:55:29;12.70;62.80
44063;DHT22;29727;47.606;19.130;2023-02-17T16:57:55;12.60;63.10
44063;DHT22;29727;47.606;19.130;2023-02-17T17:00:24;12.50;63.20
44063;DHT22;29727;47.606;19.130;2023-02-17T17:02:52;12.50;63.40
44063;DHT22;29727;47.606;19.130;2023-02-17T17:05:18;12.50;63.50
44063;DHT22;29727;47.606;19.130;2023-02-17T17:07:45;12.40;63.40
44063;DHT22;29727;47.606;19.130;2023-02-17T17:10:17;12.30;63.60
44063;DHT22;29727;47.606;19.130;2023-02-17T17:12:43;12.30;63.80